LIMZ/CUF METAR and TAF weather

Enter ICAO airport designator
Station Type Date Time Source
LIMZ METAR 2022/11/30 16:50 UTC NOAA

LIMZ 301650Z AUTO 30003KT 270V330 4600 BR OVC031/// 05/04 Q1018


Station Type Date Time Source
LIMZ Decoded METAR 2022/11/30 16:50 UTC NOAA

Cuneo / Levaldigi, Italy (LIMZ) 44-32-47N 007-37-20E
Nov 30, 2022 - 11:50 AM EST / 2022.11.30 1650 UTC
Wind: from the WNW (300 degrees) at 3 MPH (3 KT) (direction variable):0
Visibility: 2 mile(s):0
Sky conditions: overcast
Weather: mist
Temperature: 41 F (5 C)
Dew Point: 39 F (4 C)
Relative Humidity: 93%
Pressure (altimeter): 30.06 in. Hg (1018 hPa)
ob: LIMZ 301650Z AUTO 30003KT 270V330 4600 BR OVC031/// 05/04 Q1018
cycle: 17

Station Type Date Time Source
LIMZ TAF 2022/11/30 12:21 UTC NOAA

TAF LIMZ 301100Z 3012/0112 VRB04KT 9999 SCT040
BECMG 3020/3022 3000 BR
TEMPO 0101/0107 0800 FZFG OVC004

Example: see airport list